sensor_id;sensor_type;location;lat;lon;timestamp;P1;durP1;ratioP1;P2;durP2;ratioP2
23826;SDS011;12094;50.822;4.376;2023-02-28T00:01:31;15.20;;;6.90;;
23826;SDS011;12094;50.822;4.376;2023-02-28T00:04:02;14.43;;;8.07;;
23826;SDS011;12094;50.822;4.376;2023-02-28T00:06:30;14.15;;;6.93;;
23826;SDS011;12094;50.822;4.376;2023-02-28T00:08:59;13.43;;;7.15;;
23826;SDS011;12094;50.822;4.376;2023-02-28T00:11:26;13.40;;;6.78;;
23826;SDS011;12094;50.822;4.376;2023-02-28T00:13:57;14.30;;;6.75;;
23826;SDS011;12094;50.822;4.376;2023-02-28T00:16:25;12.68;;;6.40;;
23826;SDS011;12094;50.822;4.376;2023-02-28T00:18:53;12.35;;;6.75;;
23826;SDS011;12094;50.822;4.376;2023-02-28T00:21:21;12.05;;;6.40;;
23826;SDS011;12094;50.822;4.376;2023-02-28T00:23:48;14.57;;;6.97;;
23826;SDS011;12094;50.822;4.376;2023-02-28T00:26:15;12.75;;;6.05;;
23826;SDS011;12094;50.822;4.376;2023-02-28T00:28:45;14.05;;;6.53;;
23826;SDS011;12094;50.822;4.376;2023-02-28T00:31:13;16.55;;;6.90;;
23826;SDS011;12094;50.822;4.376;2023-02-28T00:33:48;11.63;;;6.53;;
23826;SDS011;12094;50.822;4.376;2023-02-28T00:36:16;11.82;;;6.30;;
23826;SDS011;12094;50.822;4.376;2023-02-28T00:38:44;14.13;;;6.43;;
23826;SDS011;12094;50.822;4.376;2023-02-28T00:41:12;11.00;;;6.75;;
23826;SDS011;12094;50.822;4.376;2023-02-28T00:43:43;11.35;;;7.10;;
23826;SDS011;12094;50.822;4.376;2023-02-28T00:46:11;9.35;;;6.55;;
23826;SDS011;12094;50.822;4.376;2023-02-28T00:48:38;14.40;;;7.00;;
23826;SDS011;12094;50.822;4.376;2023-02-28T00:51:05;12.85;;;6.68;;
23826;SDS011;12094;50.822;4.376;2023-02-28T00:53:32;11.95;;;6.72;;
23826;SDS011;12094;50.822;4.376;2023-02-28T00:56:00;11.10;;;7.00;;
23826;SDS011;12094;50.822;4.376;2023-02-28T00:58:29;15.73;;;7.70;;
23826;SDS011;12094;50.822;4.376;2023-02-28T01:00:59;15.07;;;7.03;;
23826;SDS011;12094;50.822;4.376;2023-02-28T01:03:28;13.70;;;6.68;;
23826;SDS011;12094;50.822;4.376;2023-02-28T01:05:55;13.77;;;7.07;;
23826;SDS011;12094;50.822;4.376;2023-02-28T01:08:22;15.32;;;7.07;;
23826;SDS011;12094;50.822;4.376;2023-02-28T01:10:49;12.02;;;6.88;;
23826;SDS011;12094;50.822;4.376;2023-02-28T01:13:19;10.68;;;6.85;;
23826;SDS011;12094;50.822;4.376;2023-02-28T01:15:50;13.15;;;7.30;;
23826;SDS011;12094;50.822;4.376;2023-02-28T01:20:48;15.77;;;7.55;;
23826;SDS011;12094;50.822;4.376;2023-02-28T01:23:18;12.27;;;7.35;;
23826;SDS011;12094;50.822;4.376;2023-02-28T01:25:46;12.77;;;7.32;;
23826;SDS011;12094;50.822;4.376;2023-02-28T01:28:13;14.30;;;7.40;;
23826;SDS011;12094;50.822;4.376;2023-02-28T01:30:40;17.98;;;8.15;;
23826;SDS011;12094;50.822;4.376;2023-02-28T01:33:07;16.45;;;7.80;;
23826;SDS011;12094;50.822;4.376;2023-02-28T01:35:36;13.20;;;7.22;;
23826;SDS011;12094;50.822;4.376;2023-02-28T01:38:03;14.60;;;7.40;;
23826;SDS011;12094;50.822;4.376;2023-02-28T01:40:47;14.02;;;7.63;;
23826;SDS011;12094;50.822;4.376;2023-02-28T01:43:30;17.52;;;8.20;;
23826;SDS011;12094;50.822;4.376;2023-02-28T01:46:12;12.75;;;7.78;;
23826;SDS011;12094;50.822;4.376;2023-02-28T01:48:45;14.13;;;7.75;;
23826;SDS011;12094;50.822;4.376;2023-02-28T01:51:21;16.17;;;7.50;;
23826;SDS011;12094;50.822;4.376;2023-02-28T01:53:56;13.50;;;8.20;;
23826;SDS011;12094;50.822;4.376;2023-02-28T01:56:32;14.65;;;7.40;;
23826;SDS011;12094;50.822;4.376;2023-02-28T01:59:04;14.17;;;7.17;;
23826;SDS011;12094;50.822;4.376;2023-02-28T02:01:33;14.13;;;7.72;;
23826;SDS011;12094;50.822;4.376;2023-02-28T02:04:02;15.00;;;7.72;;
23826;SDS011;12094;50.822;4.376;2023-02-28T02:06:36;14.20;;;8.63;;
23826;SDS011;12094;50.822;4.376;2023-02-28T02:09:09;16.52;;;8.10;;
23826;SDS011;12094;50.822;4.376;2023-02-28T02:11:36;15.35;;;8.70;;
23826;SDS011;12094;50.822;4.376;2023-02-28T02:28:46;16.88;;;8.93;;
23826;SDS011;12094;50.822;4.376;2023-02-28T02:37:21;15.90;;;8.90;;
23826;SDS011;12094;50.822;4.376;2023-02-28T02:42:54;13.93;;;8.60;;
23826;SDS011;12094;50.822;4.376;2023-02-28T02:45:32;14.68;;;8.43;;
23826;SDS011;12094;50.822;4.376;2023-02-28T02:48:05;14.98;;;8.82;;
23826;SDS011;12094;50.822;4.376;2023-02-28T02:50:37;17.13;;;8.85;;
23826;SDS011;12094;50.822;4.376;2023-02-28T02:53:09;19.35;;;9.35;;
23826;SDS011;12094;50.822;4.376;2023-02-28T02:55:41;15.70;;;9.68;;
23826;SDS011;12094;50.822;4.376;2023-02-28T02:58:13;15.73;;;9.73;;
23826;SDS011;12094;50.822;4.376;2023-02-28T03:00:48;17.00;;;9.40;;
23826;SDS011;12094;50.822;4.376;2023-02-28T03:03:20;16.58;;;10.20;;
23826;SDS011;12094;50.822;4.376;2023-02-28T03:05:57;18.65;;;10.13;;
23826;SDS011;12094;50.822;4.376;2023-02-28T03:08:25;16.73;;;9.50;;
23826;SDS011;12094;50.822;4.376;2023-02-28T03:10:58;13.35;;;9.73;;
23826;SDS011;12094;50.822;4.376;2023-02-28T03:13:51;17.67;;;10.48;;
23826;SDS011;12094;50.822;4.376;2023-02-28T03:16:54;17.80;;;9.93;;
23826;SDS011;12094;50.822;4.376;2023-02-28T03:22:45;18.75;;;10.10;;
23826;SDS011;12094;50.822;4.376;2023-02-28T03:25:39;16.20;;;10.55;;
23826;SDS011;12094;50.822;4.376;2023-02-28T03:28:26;19.92;;;10.77;;
23826;SDS011;12094;50.822;4.376;2023-02-28T03:33:50;16.60;;;10.30;;
23826;SDS011;12094;50.822;4.376;2023-02-28T03:36:28;17.45;;;10.27;;
23826;SDS011;12094;50.822;4.376;2023-02-28T03:39:01;16.67;;;9.95;;
23826;SDS011;12094;50.822;4.376;2023-02-28T03:41:36;18.70;;;10.63;;
23826;SDS011;12094;50.822;4.376;2023-02-28T03:44:20;17.40;;;10.45;;
23826;SDS011;12094;50.822;4.376;2023-02-28T03:47:02;21.30;;;11.40;;
23826;SDS011;12094;50.822;4.376;2023-02-28T03:49:40;21.13;;;10.77;;
23826;SDS011;12094;50.822;4.376;2023-02-28T03:52:21;20.90;;;11.55;;
23826;SDS011;12094;50.822;4.376;2023-02-28T03:54:54;20.15;;;11.95;;
23826;SDS011;12094;50.822;4.376;2023-02-28T03:57:34;22.58;;;10.60;;
23826;SDS011;12094;50.822;4.376;2023-02-28T04:00:09;21.95;;;12.45;;
23826;SDS011;12094;50.822;4.376;2023-02-28T04:02:43;27.17;;;15.07;;
23826;SDS011;12094;50.822;4.376;2023-02-28T04:05:10;21.35;;;12.43;;
23826;SDS011;12094;50.822;4.376;2023-02-28T04:07:38;22.08;;;12.27;;
23826;SDS011;12094;50.822;4.376;2023-02-28T04:10:06;21.35;;;12.10;;
23826;SDS011;12094;50.822;4.376;2023-02-28T04:12:33;20.25;;;12.25;;
23826;SDS011;12094;50.822;4.376;2023-02-28T04:15:00;18.17;;;11.77;;
23826;SDS011;12094;50.822;4.376;2023-02-28T04:17:29;22.60;;;12.50;;
23826;SDS011;12094;50.822;4.376;2023-02-28T04:19:57;23.20;;;11.88;;
23826;SDS011;12094;50.822;4.376;2023-02-28T04:22:28;23.52;;;11.90;;
23826;SDS011;12094;50.822;4.376;2023-02-28T04:24:55;22.27;;;12.55;;
23826;SDS011;12094;50.822;4.376;2023-02-28T04:27:24;21.02;;;12.63;;
23826;SDS011;12094;50.822;4.376;2023-02-28T04:29:51;18.33;;;12.38;;
23826;SDS011;12094;50.822;4.376;2023-02-28T04:32:20;22.27;;;12.60;;
23826;SDS011;12094;50.822;4.376;2023-02-28T04:34:47;22.83;;;12.15;;
23826;SDS011;12094;50.822;4.376;2023-02-28T04:37:15;19.67;;;12.60;;
23826;SDS011;12094;50.822;4.376;2023-02-28T04:39:45;27.08;;;13.05;;
23826;SDS011;12094;50.822;4.376;2023-02-28T04:42:12;24.58;;;12.80;;
23826;SDS011;12094;50.822;4.376;2023-02-28T04:44:39;22.42;;;13.10;;
23826;SDS011;12094;50.822;4.376;2023-02-28T04:47:12;22.08;;;12.85;;
23826;SDS011;12094;50.822;4.376;2023-02-28T04:49:44;21.17;;;12.05;;
23826;SDS011;12094;50.822;4.376;2023-02-28T04:52:13;22.20;;;12.65;;
23826;SDS011;12094;50.822;4.376;2023-02-28T04:54:40;21.48;;;12.73;;
23826;SDS011;12094;50.822;4.376;2023-02-28T04:57:06;19.33;;;11.63;;
23826;SDS011;12094;50.822;4.376;2023-02-28T04:59:33;18.63;;;12.18;;
23826;SDS011;12094;50.822;4.376;2023-02-28T05:02:00;24.77;;;12.85;;
23826;SDS011;12094;50.822;4.376;2023-02-28T05:07:01;23.80;;;12.82;;
23826;SDS011;12094;50.822;4.376;2023-02-28T05:09:29;21.73;;;12.82;;
23826;SDS011;12094;50.822;4.376;2023-02-28T05:11:57;25.02;;;12.25;;
23826;SDS011;12094;50.822;4.376;2023-02-28T05:14:26;28.35;;;15.63;;
23826;SDS011;12094;50.822;4.376;2023-02-28T05:16:53;20.77;;;12.60;;
23826;SDS011;12094;50.822;4.376;2023-02-28T05:19:21;27.05;;;13.00;;
23826;SDS011;12094;50.822;4.376;2023-02-28T05:21:50;21.45;;;12.68;;
23826;SDS011;12094;50.822;4.376;2023-02-28T05:24:21;19.77;;;12.32;;
23826;SDS011;12094;50.822;4.376;2023-02-28T05:26:50;21.05;;;12.70;;
23826;SDS011;12094;50.822;4.376;2023-02-28T05:29:20;20.27;;;12.88;;
23826;SDS011;12094;50.822;4.376;2023-02-28T05:31:47;18.73;;;12.75;;
23826;SDS011;12094;50.822;4.376;2023-02-28T05:34:15;24.58;;;12.80;;
23826;SDS011;12094;50.822;4.376;2023-02-28T05:36:42;22.23;;;12.95;;
23826;SDS011;12094;50.822;4.376;2023-02-28T05:39:09;21.73;;;11.80;;
23826;SDS011;12094;50.822;4.376;2023-02-28T05:41:41;23.40;;;12.63;;
23826;SDS011;12094;50.822;4.376;2023-02-28T05:44:08;25.15;;;12.60;;
23826;SDS011;12094;50.822;4.376;2023-02-28T05:46:36;23.67;;;12.27;;
23826;SDS011;12094;50.822;4.376;2023-02-28T05:49:04;18.80;;;12.43;;
23826;SDS011;12094;50.822;4.376;2023-02-28T05:51:32;24.38;;;12.68;;
23826;SDS011;12094;50.822;4.376;2023-02-28T05:54:02;21.00;;;11.75;;
23826;SDS011;12094;50.822;4.376;2023-02-28T05:56:29;19.33;;;12.18;;
23826;SDS011;12094;50.822;4.376;2023-02-28T05:58:58;22.45;;;12.10;;
23826;SDS011;12094;50.822;4.376;2023-02-28T06:04:03;25.95;;;12.63;;
23826;SDS011;12094;50.822;4.376;2023-02-28T06:06:38;18.25;;;12.15;;
23826;SDS011;12094;50.822;4.376;2023-02-28T06:09:08;20.58;;;12.77;;
23826;SDS011;12094;50.822;4.376;2023-02-28T06:11:36;18.38;;;12.00;;
23826;SDS011;12094;50.822;4.376;2023-02-28T06:14:06;20.13;;;11.70;;
23826;SDS011;12094;50.822;4.376;2023-02-28T06:16:33;22.38;;;11.88;;
23826;SDS011;12094;50.822;4.376;2023-02-28T06:19:02;18.77;;;11.65;;
23826;SDS011;12094;50.822;4.376;2023-02-28T06:21:31;21.25;;;12.13;;
23826;SDS011;12094;50.822;4.376;2023-02-28T06:23:58;20.70;;;12.75;;
23826;SDS011;12094;50.822;4.376;2023-02-28T06:26:26;18.63;;;12.02;;
23826;SDS011;12094;50.822;4.376;2023-02-28T06:28:54;22.40;;;12.82;;
23826;SDS011;12094;50.822;4.376;2023-02-28T06:31:22;21.05;;;12.07;;
23826;SDS011;12094;50.822;4.376;2023-02-28T06:33:51;25.67;;;11.90;;
23826;SDS011;12094;50.822;4.376;2023-02-28T06:36:19;21.75;;;12.65;;
23826;SDS011;12094;50.822;4.376;2023-02-28T06:38:47;18.38;;;12.07;;
23826;SDS011;12094;50.822;4.376;2023-02-28T06:41:17;22.63;;;11.93;;
23826;SDS011;12094;50.822;4.376;2023-02-28T06:43:47;19.45;;;11.57;;
23826;SDS011;12094;50.822;4.376;2023-02-28T06:46:14;20.30;;;11.75;;
23826;SDS011;12094;50.822;4.376;2023-02-28T06:48:44;20.27;;;11.75;;
23826;SDS011;12094;50.822;4.376;2023-02-28T06:51:13;23.77;;;12.20;;
23826;SDS011;12094;50.822;4.376;2023-02-28T06:53:42;33.65;;;12.05;;
23826;SDS011;12094;50.822;4.376;2023-02-28T06:56:12;19.90;;;11.65;;
23826;SDS011;12094;50.822;4.376;2023-02-28T06:58:41;19.88;;;11.00;;
23826;SDS011;12094;50.822;4.376;2023-02-28T07:01:13;25.77;;;12.07;;
23826;SDS011;12094;50.822;4.376;2023-02-28T07:03:41;20.05;;;11.00;;
23826;SDS011;12094;50.822;4.376;2023-02-28T07:06:08;21.40;;;11.50;;
23826;SDS011;12094;50.822;4.376;2023-02-28T07:08:37;20.73;;;11.38;;
23826;SDS011;12094;50.822;4.376;2023-02-28T07:11:07;24.27;;;11.73;;
23826;SDS011;12094;50.822;4.376;2023-02-28T07:13:36;20.27;;;12.15;;
23826;SDS011;12094;50.822;4.376;2023-02-28T07:16:05;21.88;;;10.77;;
23826;SDS011;12094;50.822;4.376;2023-02-28T07:18:39;17.27;;;10.82;;
23826;SDS011;12094;50.822;4.376;2023-02-28T07:21:08;21.25;;;11.88;;
23826;SDS011;12094;50.822;4.376;2023-02-28T07:23:38;28.10;;;13.52;;
23826;SDS011;12094;50.822;4.376;2023-02-28T07:26:06;42.35;;;18.23;;
23826;SDS011;12094;50.822;4.376;2023-02-28T07:28:37;36.60;;;16.23;;
23826;SDS011;12094;50.822;4.376;2023-02-28T07:31:06;26.52;;;13.90;;
23826;SDS011;12094;50.822;4.376;2023-02-28T07:33:33;20.48;;;10.93;;
23826;SDS011;12094;50.822;4.376;2023-02-28T07:36:03;19.10;;;11.27;;
23826;SDS011;12094;50.822;4.376;2023-02-28T07:38:38;15.40;;;9.45;;
23826;SDS011;12094;50.822;4.376;2023-02-28T07:41:08;20.48;;;9.77;;
23826;SDS011;12094;50.822;4.376;2023-02-28T07:43:36;18.27;;;10.70;;
23826;SDS011;12094;50.822;4.376;2023-02-28T07:46:04;17.35;;;9.95;;
23826;SDS011;12094;50.822;4.376;2023-02-28T07:48:33;16.70;;;9.63;;
23826;SDS011;12094;50.822;4.376;2023-02-28T07:51:00;20.55;;;9.45;;
23826;SDS011;12094;50.822;4.376;2023-02-28T07:53:28;13.43;;;8.93;;
23826;SDS011;12094;50.822;4.376;2023-02-28T07:55:56;14.70;;;8.77;;
23826;SDS011;12094;50.822;4.376;2023-02-28T07:58:24;16.30;;;8.52;;
23826;SDS011;12094;50.822;4.376;2023-02-28T08:00:52;15.02;;;8.70;;
23826;SDS011;12094;50.822;4.376;2023-02-28T08:03:24;21.42;;;8.15;;
23826;SDS011;12094;50.822;4.376;2023-02-28T08:05:58;17.90;;;8.15;;
23826;SDS011;12094;50.822;4.376;2023-02-28T08:08:25;16.98;;;8.10;;
23826;SDS011;12094;50.822;4.376;2023-02-28T08:10:55;16.17;;;7.78;;
23826;SDS011;12094;50.822;4.376;2023-02-28T08:13:23;18.23;;;8.13;;
23826;SDS011;12094;50.822;4.376;2023-02-28T08:15:52;12.63;;;7.53;;
23826;SDS011;12094;50.822;4.376;2023-02-28T08:18:20;14.60;;;7.28;;
23826;SDS011;12094;50.822;4.376;2023-02-28T08:20:47;17.98;;;7.65;;
23826;SDS011;12094;50.822;4.376;2023-02-28T08:23:16;17.55;;;7.35;;
23826;SDS011;12094;50.822;4.376;2023-02-28T08:25:43;15.95;;;7.47;;
23826;SDS011;12094;50.822;4.376;2023-02-28T08:28:13;12.82;;;6.60;;
23826;SDS011;12094;50.822;4.376;2023-02-28T08:30:39;10.00;;;6.43;;
23826;SDS011;12094;50.822;4.376;2023-02-28T08:33:08;10.52;;;6.63;;
23826;SDS011;12094;50.822;4.376;2023-02-28T08:35:36;14.20;;;6.47;;
23826;SDS011;12094;50.822;4.376;2023-02-28T08:38:05;10.20;;;6.47;;
23826;SDS011;12094;50.822;4.376;2023-02-28T08:40:33;9.40;;;6.22;;
23826;SDS011;12094;50.822;4.376;2023-02-28T08:43:02;20.23;;;7.13;;
23826;SDS011;12094;50.822;4.376;2023-02-28T08:45:29;11.80;;;6.13;;
23826;SDS011;12094;50.822;4.376;2023-02-28T08:48:11;10.35;;;6.30;;
23826;SDS011;12094;50.822;4.376;2023-02-28T08:50:39;13.13;;;6.40;;
23826;SDS011;12094;50.822;4.376;2023-02-28T08:53:34;13.98;;;6.05;;
23826;SDS011;12094;50.822;4.376;2023-02-28T08:56:05;16.23;;;6.63;;
23826;SDS011;12094;50.822;4.376;2023-02-28T08:58:34;15.98;;;6.32;;
23826;SDS011;12094;50.822;4.376;2023-02-28T09:01:12;11.00;;;6.63;;
23826;SDS011;12094;50.822;4.376;2023-02-28T09:03:41;12.57;;;6.45;;
23826;SDS011;12094;50.822;4.376;2023-02-28T09:06:09;16.27;;;6.35;;
23826;SDS011;12094;50.822;4.376;2023-02-28T09:08:39;9.30;;;5.93;;
23826;SDS011;12094;50.822;4.376;2023-02-28T09:11:07;13.73;;;6.47;;
23826;SDS011;12094;50.822;4.376;2023-02-28T09:13:35;10.82;;;6.30;;
23826;SDS011;12094;50.822;4.376;2023-02-28T09:16:03;13.23;;;5.43;;
23826;SDS011;12094;50.822;4.376;2023-02-28T09:18:35;10.70;;;5.97;;
23826;SDS011;12094;50.822;4.376;2023-02-28T09:21:05;12.57;;;5.82;;
23826;SDS011;12094;50.822;4.376;2023-02-28T09:23:34;11.13;;;6.00;;
23826;SDS011;12094;50.822;4.376;2023-02-28T09:26:05;10.93;;;5.25;;
23826;SDS011;12094;50.822;4.376;2023-02-28T09:28:34;10.13;;;5.45;;
23826;SDS011;12094;50.822;4.376;2023-02-28T09:31:01;7.30;;;4.70;;
23826;SDS011;12094;50.822;4.376;2023-02-28T09:33:30;7.95;;;4.97;;
23826;SDS011;12094;50.822;4.376;2023-02-28T09:36:00;9.52;;;4.85;;
23826;SDS011;12094;50.822;4.376;2023-02-28T09:38:33;8.38;;;5.43;;
23826;SDS011;12094;50.822;4.376;2023-02-28T09:44:09;6.07;;;4.53;;
23826;SDS011;12094;50.822;4.376;2023-02-28T09:46:59;7.43;;;4.43;;
23826;SDS011;12094;50.822;4.376;2023-02-28T09:49:37;8.57;;;4.03;;
23826;SDS011;12094;50.822;4.376;2023-02-28T09:52:12;8.32;;;4.47;;
23826;SDS011;12094;50.822;4.376;2023-02-28T09:55:00;9.73;;;4.20;;
23826;SDS011;12094;50.822;4.376;2023-02-28T09:57:48;9.10;;;4.15;;
23826;SDS011;12094;50.822;4.376;2023-02-28T10:00:31;6.60;;;4.07;;
23826;SDS011;12094;50.822;4.376;2023-02-28T10:06:05;9.82;;;3.53;;
23826;SDS011;12094;50.822;4.376;2023-02-28T10:11:17;13.32;;;4.10;;
23826;SDS011;12094;50.822;4.376;2023-02-28T10:13:54;11.55;;;4.00;;
23826;SDS011;12094;50.822;4.376;2023-02-28T10:19:02;5.88;;;3.67;;
23826;SDS011;12094;50.822;4.376;2023-02-28T10:21:37;7.85;;;4.00;;
23826;SDS011;12094;50.822;4.376;2023-02-28T10:24:13;7.65;;;4.13;;
23826;SDS011;12094;50.822;4.376;2023-02-28T10:26:47;6.57;;;3.60;;
23826;SDS011;12094;50.822;4.376;2023-02-28T10:29:18;8.35;;;3.42;;
23826;SDS011;12094;50.822;4.376;2023-02-28T10:31:48;7.47;;;3.10;;
23826;SDS011;12094;50.822;4.376;2023-02-28T10:34:18;10.65;;;3.65;;
23826;SDS011;12094;50.822;4.376;2023-02-28T10:40:01;8.40;;;3.10;;
23826;SDS011;12094;50.822;4.376;2023-02-28T10:42:30;9.43;;;3.15;;
23826;SDS011;12094;50.822;4.376;2023-02-28T10:48:05;13.20;;;3.25;;
23826;SDS011;12094;50.822;4.376;2023-02-28T10:50:57;14.20;;;3.60;;
23826;SDS011;12094;50.822;4.376;2023-02-28T10:56:32;3.63;;;2.75;;
23826;SDS011;12094;50.822;4.376;2023-02-28T10:59:37;10.70;;;2.90;;
23826;SDS011;12094;50.822;4.376;2023-02-28T11:08:14;3.78;;;2.70;;
23826;SDS011;12094;50.822;4.376;2023-02-28T11:10:58;5.80;;;2.97;;
23826;SDS011;12094;50.822;4.376;2023-02-28T11:13:33;4.65;;;3.17;;
23826;SDS011;12094;50.822;4.376;2023-02-28T11:16:05;9.25;;;3.40;;
23826;SDS011;12094;50.822;4.376;2023-02-28T11:21:17;13.95;;;5.43;;
23826;SDS011;12094;50.822;4.376;2023-02-28T11:23:50;5.75;;;3.13;;
23826;SDS011;12094;50.822;4.376;2023-02-28T11:29:14;4.35;;;2.92;;
23826;SDS011;12094;50.822;4.376;2023-02-28T11:32:05;4.50;;;3.00;;
23826;SDS011;12094;50.822;4.376;2023-02-28T11:34:39;7.57;;;3.30;;
23826;SDS011;12094;50.822;4.376;2023-02-28T11:37:10;4.07;;;2.85;;
23826;SDS011;12094;50.822;4.376;2023-02-28T11:39:45;8.18;;;2.90;;
23826;SDS011;12094;50.822;4.376;2023-02-28T11:42:22;5.93;;;3.17;;
23826;SDS011;12094;50.822;4.376;2023-02-28T11:45:13;4.70;;;3.10;;
23826;SDS011;12094;50.822;4.376;2023-02-28T11:56:48;5.00;;;2.97;;
23826;SDS011;12094;50.822;4.376;2023-02-28T12:24:31;6.22;;;3.40;;
23826;SDS011;12094;50.822;4.376;2023-02-28T12:27:13;5.00;;;2.92;;
23826;SDS011;12094;50.822;4.376;2023-02-28T12:29:57;3.95;;;2.75;;
23826;SDS011;12094;50.822;4.376;2023-02-28T12:32:35;4.78;;;2.97;;
23826;SDS011;12094;50.822;4.376;2023-02-28T12:35:11;6.05;;;3.22;;
23826;SDS011;12094;50.822;4.376;2023-02-28T12:38:25;3.60;;;2.75;;
23826;SDS011;12094;50.822;4.376;2023-02-28T12:40:45;5.03;;;2.95;;
23826;SDS011;12094;50.822;4.376;2023-02-28T12:43:36;4.13;;;2.90;;
23826;SDS011;12094;50.822;4.376;2023-02-28T12:46:21;4.22;;;2.60;;
23826;SDS011;12094;50.822;4.376;2023-02-28T12:49:02;5.30;;;3.08;;
23826;SDS011;12094;50.822;4.376;2023-02-28T12:51:34;4.93;;;2.70;;
23826;SDS011;12094;50.822;4.376;2023-02-28T12:59:25;6.35;;;2.80;;
23826;SDS011;12094;50.822;4.376;2023-02-28T13:13:19;5.88;;;2.85;;
23826;SDS011;12094;50.822;4.376;2023-02-28T13:16:02;5.53;;;3.10;;
23826;SDS011;12094;50.822;4.376;2023-02-28T13:18:35;4.30;;;2.95;;
23826;SDS011;12094;50.822;4.376;2023-02-28T13:21:21;10.95;;;3.00;;
23826;SDS011;12094;50.822;4.376;2023-02-28T13:24:03;4.03;;;2.92;;
23826;SDS011;12094;50.822;4.376;2023-02-28T13:34:38;5.00;;;3.20;;
23826;SDS011;12094;50.822;4.376;2023-02-28T13:50:38;5.75;;;3.08;;
23826;SDS011;12094;50.822;4.376;2023-02-28T14:01:57;5.22;;;3.00;;
23826;SDS011;12094;50.822;4.376;2023-02-28T14:05:06;4.57;;;3.08;;
23826;SDS011;12094;50.822;4.376;2023-02-28T14:10:36;4.25;;;3.17;;
23826;SDS011;12094;50.822;4.376;2023-02-28T14:16:21;9.30;;;3.63;;
23826;SDS011;12094;50.822;4.376;2023-02-28T14:19:04;4.75;;;3.45;;
23826;SDS011;12094;50.822;4.376;2023-02-28T14:36:40;5.80;;;3.70;;
23826;SDS011;12094;50.822;4.376;2023-02-28T14:39:16;6.95;;;4.20;;
23826;SDS011;12094;50.822;4.376;2023-02-28T14:41:50;5.22;;;3.22;;
23826;SDS011;12094;50.822;4.376;2023-02-28T14:44:22;7.70;;;3.30;;
23826;SDS011;12094;50.822;4.376;2023-02-28T14:46:58;6.40;;;3.45;;
23826;SDS011;12094;50.822;4.376;2023-02-28T14:52:07;5.07;;;3.60;;
23826;SDS011;12094;50.822;4.376;2023-02-28T14:54:44;5.75;;;3.47;;
23826;SDS011;12094;50.822;4.376;2023-02-28T14:57:51;8.07;;;4.20;;
23826;SDS011;12094;50.822;4.376;2023-02-28T15:00:13;5.63;;;3.85;;
23826;SDS011;12094;50.822;4.376;2023-02-28T15:02:42;6.78;;;3.42;;
23826;SDS011;12094;50.822;4.376;2023-02-28T15:08:24;7.38;;;3.83;;
23826;SDS011;12094;50.822;4.376;2023-02-28T15:10:57;12.02;;;5.90;;
23826;SDS011;12094;50.822;4.376;2023-02-28T15:13:45;11.55;;;5.20;;
23826;SDS011;12094;50.822;4.376;2023-02-28T15:16:16;9.30;;;4.60;;
23826;SDS011;12094;50.822;4.376;2023-02-28T15:21:29;6.15;;;3.90;;
23826;SDS011;12094;50.822;4.376;2023-02-28T15:27:15;9.70;;;4.22;;
23826;SDS011;12094;50.822;4.376;2023-02-28T15:29:55;5.50;;;3.55;;
23826;SDS011;12094;50.822;4.376;2023-02-28T15:32:29;7.20;;;4.15;;
23826;SDS011;12094;50.822;4.376;2023-02-28T15:40:55;10.32;;;4.63;;
23826;SDS011;12094;50.822;4.376;2023-02-28T15:43:26;10.77;;;4.70;;
23826;SDS011;12094;50.822;4.376;2023-02-28T15:48:54;6.47;;;4.35;;
23826;SDS011;12094;50.822;4.376;2023-02-28T15:51:38;9.40;;;5.57;;
23826;SDS011;12094;50.822;4.376;2023-02-28T15:54:07;6.80;;;4.30;;
23826;SDS011;12094;50.822;4.376;2023-02-28T15:56:42;8.52;;;6.53;;
23826;SDS011;12094;50.822;4.376;2023-02-28T15:59:17;7.35;;;5.50;;
23826;SDS011;12094;50.822;4.376;2023-02-28T16:02:33;10.80;;;5.38;;
23826;SDS011;12094;50.822;4.376;2023-02-28T16:07:27;8.13;;;4.28;;
23826;SDS011;12094;50.822;4.376;2023-02-28T16:10:03;11.75;;;4.28;;
23826;SDS011;12094;50.822;4.376;2023-02-28T16:12:42;6.38;;;4.30;;
23826;SDS011;12094;50.822;4.376;2023-02-28T16:17:48;5.88;;;4.05;;
23826;SDS011;12094;50.822;4.376;2023-02-28T16:20:21;7.85;;;4.13;;
23826;SDS011;12094;50.822;4.376;2023-02-28T16:22:53;10.80;;;4.13;;
23826;SDS011;12094;50.822;4.376;2023-02-28T16:25:23;9.60;;;4.95;;
23826;SDS011;12094;50.822;4.376;2023-02-28T16:28:30;6.18;;;4.05;;
23826;SDS011;12094;50.822;4.376;2023-02-28T16:31:05;9.07;;;4.38;;
23826;SDS011;12094;50.822;4.376;2023-02-28T16:33:41;7.22;;;3.88;;
23826;SDS011;12094;50.822;4.376;2023-02-28T16:36:16;6.85;;;4.22;;
23826;SDS011;12094;50.822;4.376;2023-02-28T16:38:47;6.10;;;4.13;;
23826;SDS011;12094;50.822;4.376;2023-02-28T16:41:24;6.78;;;4.53;;
23826;SDS011;12094;50.822;4.376;2023-02-28T16:43:59;5.78;;;3.78;;
23826;SDS011;12094;50.822;4.376;2023-02-28T16:46:36;6.60;;;4.00;;
23826;SDS011;12094;50.822;4.376;2023-02-28T16:49:04;5.60;;;3.95;;
23826;SDS011;12094;50.822;4.376;2023-02-28T16:51:39;6.28;;;3.85;;
23826;SDS011;12094;50.822;4.376;2023-02-28T16:54:11;18.08;;;7.38;;
23826;SDS011;12094;50.822;4.376;2023-02-28T16:56:42;8.13;;;4.93;;
23826;SDS011;12094;50.822;4.376;2023-02-28T16:59:15;9.18;;;4.18;;
23826;SDS011;12094;50.822;4.376;2023-02-28T17:01:55;8.32;;;3.75;;
23826;SDS011;12094;50.822;4.376;2023-02-28T17:04:38;8.02;;;4.15;;
23826;SDS011;12094;50.822;4.376;2023-02-28T17:07:11;6.00;;;3.50;;
23826;SDS011;12094;50.822;4.376;2023-02-28T17:09:54;9.65;;;4.30;;
23826;SDS011;12094;50.822;4.376;2023-02-28T17:12:31;10.32;;;4.40;;
23826;SDS011;12094;50.822;4.376;2023-02-28T17:15:03;6.03;;;3.72;;
23826;SDS011;12094;50.822;4.376;2023-02-28T17:17:47;7.40;;;4.25;;
23826;SDS011;12094;50.822;4.376;2023-02-28T17:22:57;12.75;;;7.00;;
23826;SDS011;12094;50.822;4.376;2023-02-28T17:26:04;6.57;;;4.20;;
23826;SDS011;12094;50.822;4.376;2023-02-28T17:28:36;7.90;;;4.32;;
23826;SDS011;12094;50.822;4.376;2023-02-28T17:31:10;14.05;;;4.75;;
23826;SDS011;12094;50.822;4.376;2023-02-28T17:33:37;8.25;;;4.03;;
23826;SDS011;12094;50.822;4.376;2023-02-28T17:36:15;8.68;;;4.57;;
23826;SDS011;12094;50.822;4.376;2023-02-28T17:38:51;7.43;;;4.72;;
23826;SDS011;12094;50.822;4.376;2023-02-28T17:41:21;7.10;;;4.10;;
23826;SDS011;12094;50.822;4.376;2023-02-28T17:44:05;11.18;;;4.55;;
23826;SDS011;12094;50.822;4.376;2023-02-28T17:46:33;8.60;;;4.70;;
23826;SDS011;12094;50.822;4.376;2023-02-28T17:49:04;9.98;;;4.70;;
23826;SDS011;12094;50.822;4.376;2023-02-28T17:51:38;8.90;;;4.97;;
23826;SDS011;12094;50.822;4.376;2023-02-28T17:54:06;11.43;;;4.88;;
23826;SDS011;12094;50.822;4.376;2023-02-28T17:59:43;11.60;;;4.55;;
23826;SDS011;12094;50.822;4.376;2023-02-28T18:02:25;12.88;;;4.47;;
23826;SDS011;12094;50.822;4.376;2023-02-28T18:05:08;12.73;;;4.65;;
23826;SDS011;12094;50.822;4.376;2023-02-28T18:07:39;9.63;;;5.15;;
23826;SDS011;12094;50.822;4.376;2023-02-28T18:10:19;8.23;;;4.50;;
23826;SDS011;12094;50.822;4.376;2023-02-28T18:12:49;7.40;;;4.60;;
23826;SDS011;12094;50.822;4.376;2023-02-28T18:15:32;10.23;;;4.28;;
23826;SDS011;12094;50.822;4.376;2023-02-28T18:28:52;9.15;;;5.03;;
23826;SDS011;12094;50.822;4.376;2023-02-28T18:34:53;7.50;;;4.97;;
23826;SDS011;12094;50.822;4.376;2023-02-28T18:37:25;13.02;;;5.00;;
23826;SDS011;12094;50.822;4.376;2023-02-28T18:39:54;9.90;;;5.72;;
23826;SDS011;12094;50.822;4.376;2023-02-28T18:45:42;9.38;;;6.00;;
23826;SDS011;12094;50.822;4.376;2023-02-28T18:51:21;9.77;;;4.95;;
23826;SDS011;12094;50.822;4.376;2023-02-28T18:53:54;9.20;;;5.13;;